Pagrindinis puslapis
METAR-TAF:

METAR-TAF

Oro uostai :

Trangas, Tailandas

platuma: 07-31N, ilguma: 099-37E, Aukštis: 14 m

Dabartinis oras

Ataskaita buvo paskelbta 1 valandą ir 16 minutes, ne 04:00 UTC
Vėjas 2 kt nuo kintamojo kryptimis
Temperatūra 29°C
Drėgmė 79%
Slėgis 1010 hPa
Matomumas 10 km arba daugiau
Mažai debesys ne aukštis 2500 ft

METAR: VTST 140400Z VRB02KT 9999 FEW025 29/25 Q1010 NOSIG

Laikas: 12:16 (05:16 UTC)

Prognozė

Ataskaita buvo paskelbta 6 valandos ir 16 minutes, ne 23:00 UTC
Prognozė galioja nuo 14 metu 00 UTC su 14 metu 24 UTC
Vėjas kt iš Šiaurės
Matomumas 10 km arba daugiau
Išsisklaidę debesys ne aukštis 2000 ft
Tapsmas
nuo 14 metu 02 UTC su 14 metu 04 UTC
Vėjas 6 kt iš Pietvakarių
Tapsmas
nuo 14 metu 12 UTC su 14 metu 14 UTC
Vėjas kt iš Šiaurės
Tapsmas
nuo 14 metu 20 UTC su 14 metu 22 UTC
Matomumas: 3000 m
rūkana

TAF: VTST 132300Z 1400/1424 00000KT 9999 SCT020 BECMG 1402/1404 22006KT BECMG 1412/1414 00000KT BECMG 1420/1422 3000 BR

Orai ataskaitas ir orų prognozės (METAR, TAF).

turimą stotys yra geltonos ir raudonos taškus žemėlapyje.

Perkelti pele per norėdami pamatyti stoties vardą.

Tada spustelėkite, norėdami matyti oro stebėjimo ir prognozės.

Norėdami pakeisti žemėlapį: spustelėkite ant žalios mygtukų su juodo kryžiaus žemyn,; žalią mygtuką su brūkšneliu, jei norite nutolinti; arba žalių rodyklių gretimoms žemėlapius.


METAR-TAF: